createdAt,value
2024-01-16T00:01:33.698Z,99553.00
2024-01-16T00:04:09.350Z,99554.00
2024-01-16T00:06:45.871Z,99556.00
2024-01-16T00:09:22.427Z,99556.00
2024-01-16T00:11:59.099Z,99564.00
2024-01-16T00:14:32.946Z,99562.00
2024-01-16T00:17:07.952Z,99572.00
2024-01-16T00:19:42.587Z,99575.00
2024-01-16T00:22:17.397Z,99584.00
2024-01-16T00:24:51.176Z,99587.00
2024-01-16T00:27:26.234Z,99564.00
2024-01-16T00:30:00.399Z,99576.00
2024-01-16T00:32:35.517Z,99580.00
2024-01-16T00:35:11.408Z,99579.00
2024-01-16T00:37:45.266Z,99584.00
2024-01-16T00:40:19.231Z,99576.00
2024-01-16T00:42:54.355Z,99585.00
2024-01-16T00:45:31.825Z,99588.00
2024-01-16T00:48:07.704Z,99601.00
2024-01-16T00:50:41.858Z,99574.00
2024-01-16T00:53:15.613Z,99597.00
2024-01-16T00:55:49.405Z,99604.00
2024-01-16T00:58:25.035Z,99611.00
2024-01-16T01:00:59.204Z,99611.00
2024-01-16T01:03:33.307Z,99606.00
2024-01-16T01:06:08.570Z,99605.00
2024-01-16T01:08:42.504Z,99609.00
2024-01-16T01:11:16.656Z,99601.00
2024-01-16T01:13:52.629Z,99603.00
2024-01-16T01:16:26.349Z,99607.00
2024-01-16T01:19:00.454Z,99613.00
2024-01-16T01:21:35.927Z,99620.00
2024-01-16T01:24:11.260Z,99618.00
2024-01-16T01:26:46.486Z,99614.00
2024-01-16T01:29:26.332Z,99623.00
2024-01-16T01:32:02.358Z,99623.00
2024-01-16T01:34:36.793Z,99618.00
2024-01-16T01:37:10.322Z,99633.00
2024-01-16T01:39:46.681Z,99626.00
2024-01-16T01:42:21.794Z,99626.00
2024-01-16T01:44:57.864Z,99628.00
2024-01-16T01:47:36.914Z,99636.00
2024-01-16T01:50:12.623Z,99610.00
2024-01-16T01:52:47.543Z,99638.00
2024-01-16T01:55:21.286Z,99632.00
2024-01-16T01:57:56.187Z,99633.00
2024-01-16T02:00:34.812Z,99633.00
2024-01-16T02:03:09.526Z,99639.00
2024-01-16T02:05:43.772Z,99629.00
2024-01-16T02:08:20.210Z,99646.00
2024-01-16T02:10:53.973Z,99631.00
2024-01-16T02:13:27.619Z,99642.00
2024-01-16T02:16:04.788Z,99642.00
2024-01-16T02:18:39.071Z,99644.00
2024-01-16T02:21:18.383Z,99630.00
2024-01-16T02:23:54.099Z,99648.00
2024-01-16T02:26:27.995Z,99644.00
2024-01-16T02:29:06.720Z,99637.00
2024-01-16T02:31:40.175Z,99636.00
2024-01-16T02:34:14.987Z,99651.00
2024-01-16T02:36:49.156Z,99643.00
2024-01-16T02:39:24.078Z,99634.00
2024-01-16T02:41:57.974Z,99635.00
2024-01-16T02:44:31.976Z,99641.00
2024-01-16T02:47:08.640Z,99641.00
2024-01-16T02:49:42.723Z,99638.00
2024-01-16T02:52:17.400Z,99640.00
2024-01-16T02:54:57.369Z,99618.00
2024-01-16T02:57:31.233Z,99639.00
2024-01-16T03:00:05.680Z,99640.00
2024-01-16T03:02:40.938Z,99641.00
2024-01-16T03:05:16.580Z,99630.00
2024-01-16T03:07:53.741Z,99623.00
2024-01-16T03:10:28.974Z,99627.00
2024-01-16T03:13:05.080Z,99624.00
2024-01-16T03:15:41.132Z,99635.00
2024-01-16T03:18:16.283Z,99629.00
2024-01-16T03:20:52.786Z,99624.00
2024-01-16T03:23:26.454Z,99627.00
2024-01-16T03:26:01.751Z,99637.00
2024-01-16T03:28:35.453Z,99626.00
2024-01-16T03:31:09.711Z,99629.00
2024-01-16T03:33:44.945Z,99627.00
2024-01-16T03:36:18.974Z,99637.00
2024-01-16T03:38:52.874Z,99631.00
2024-01-16T03:41:28.096Z,99636.00
2024-01-16T03:44:02.041Z,99634.00
2024-01-16T03:46:35.564Z,99630.00
2024-01-16T03:49:10.140Z,99639.00
2024-01-16T03:51:47.422Z,99635.00
2024-01-16T03:54:21.628Z,99643.00
2024-01-16T03:56:57.177Z,99649.00
2024-01-16T03:59:30.698Z,99647.00
2024-01-16T04:02:04.935Z,99642.00
2024-01-16T04:04:38.475Z,99642.00
2024-01-16T04:07:11.878Z,99644.00
2024-01-16T04:09:45.685Z,99636.00
2024-01-16T04:12:22.797Z,99645.00
2024-01-16T04:14:56.270Z,99644.00
2024-01-16T04:17:29.852Z,99642.00
2024-01-16T04:20:03.657Z,99639.00
2024-01-16T04:22:37.506Z,99652.00
2024-01-16T04:25:11.597Z,99628.00
2024-01-16T04:27:49.189Z,99641.00
2024-01-16T04:30:22.927Z,99637.00
2024-01-16T04:32:56.457Z,99624.00
2024-01-16T04:35:30.989Z,99627.00
2024-01-16T04:38:05.608Z,99632.00
2024-01-16T04:40:39.414Z,99632.00
2024-01-16T04:43:14.777Z,99628.00
2024-01-16T04:45:49.174Z,99626.00
2024-01-16T04:48:22.963Z,99635.00
2024-01-16T04:50:57.340Z,99632.00
2024-01-16T04:53:31.550Z,99628.00
2024-01-16T04:56:05.489Z,99632.00
2024-01-16T04:58:41.055Z,99636.00
2024-01-16T05:01:15.722Z,99635.00
2024-01-16T05:03:49.216Z,99625.00
2024-01-16T05:06:23.863Z,99634.00
2024-01-16T05:08:57.909Z,99633.00
2024-01-16T05:11:31.599Z,99630.00
2024-01-16T05:14:06.962Z,99625.00
2024-01-16T05:16:41.502Z,99622.00
2024-01-16T05:19:16.617Z,99615.00
2024-01-16T05:21:53.712Z,99617.00
2024-01-16T05:24:27.608Z,99622.00
2024-01-16T05:27:01.478Z,99613.00
2024-01-16T05:29:41.106Z,99614.00
2024-01-16T05:32:16.866Z,99614.00
2024-01-16T05:34:51.946Z,99618.00
2024-01-16T05:37:25.579Z,99611.00
2024-01-16T05:40:00.263Z,99603.00
2024-01-16T05:42:34.564Z,99610.00
2024-01-16T05:45:11.796Z,99603.00
2024-01-16T05:47:46.332Z,99598.00
2024-01-16T05:50:20.396Z,99602.00
2024-01-16T05:52:55.581Z,99586.00
2024-01-16T05:55:30.574Z,99602.00
2024-01-16T05:58:04.784Z,99599.00
2024-01-16T06:00:42.172Z,99605.00
2024-01-16T06:03:15.767Z,99593.00
2024-01-16T06:05:49.714Z,99595.00
2024-01-16T06:08:23.672Z,99587.00
2024-01-16T06:10:57.366Z,99595.00
2024-01-16T06:13:32.986Z,99593.00
2024-01-16T06:16:09.394Z,99593.00
2024-01-16T06:18:43.254Z,99600.00
2024-01-16T06:21:18.687Z,99599.00
2024-01-16T06:23:53.295Z,99581.00
2024-01-16T06:26:28.047Z,99609.00
2024-01-16T06:29:03.522Z,99596.00
2024-01-16T06:31:39.768Z,99591.00
2024-01-16T06:34:14.004Z,99575.00
2024-01-16T06:36:47.932Z,99605.00
2024-01-16T06:39:21.649Z,99601.00
2024-01-16T06:41:57.340Z,99603.00
2024-01-16T06:44:31.251Z,99603.00
2024-01-16T06:47:07.739Z,99609.00
2024-01-16T06:49:41.436Z,99601.00
2024-01-16T06:52:15.708Z,99605.00
2024-01-16T06:54:49.962Z,99586.00
2024-01-16T06:57:23.817Z,99617.00
2024-01-16T06:59:58.034Z,99622.00
2024-01-16T07:02:36.557Z,99615.00
2024-01-16T07:05:12.080Z,99615.00
2024-01-16T07:07:48.020Z,99618.00
2024-01-16T07:10:23.595Z,99620.00
2024-01-16T07:12:57.990Z,99621.00
2024-01-16T07:15:31.440Z,99622.00
2024-01-16T07:18:07.178Z,99628.00
2024-01-16T07:20:40.880Z,99612.00
2024-01-16T07:23:14.455Z,99638.00
2024-01-16T07:25:50.635Z,99634.00
2024-01-16T07:28:25.080Z,99639.00
2024-01-16T07:30:59.289Z,99639.00
2024-01-16T07:33:35.094Z,99646.00
2024-01-16T07:36:11.157Z,99644.00
2024-01-16T07:38:46.495Z,99650.00
2024-01-16T07:41:20.256Z,99647.00
2024-01-16T07:43:54.044Z,99645.00
2024-01-16T07:46:30.921Z,99650.00
2024-01-16T07:49:07.327Z,99652.00
2024-01-16T07:51:40.845Z,99652.00
2024-01-16T07:54:14.980Z,99655.00
2024-01-16T07:56:48.800Z,99653.00
2024-01-16T07:59:23.587Z,99645.00
2024-01-16T08:01:58.257Z,99647.00
2024-01-16T08:04:35.851Z,99650.00
2024-01-16T08:07:11.434Z,99647.00
2024-01-16T08:09:45.489Z,99652.00
2024-01-16T08:12:20.145Z,99658.00
2024-01-16T08:14:55.045Z,99658.00
2024-01-16T08:17:29.032Z,99654.00
2024-01-16T08:20:05.040Z,99652.00
2024-01-16T08:22:42.422Z,99662.00
2024-01-16T08:25:16.016Z,99647.00
2024-01-16T08:27:49.444Z,99653.00
2024-01-16T08:30:23.221Z,99649.00
2024-01-16T08:32:59.074Z,99655.00
2024-01-16T08:35:34.407Z,99654.00
2024-01-16T08:38:08.611Z,99654.00
2024-01-16T08:40:42.646Z,99663.00
2024-01-16T08:43:16.466Z,99648.00
2024-01-16T08:45:51.623Z,99670.00
2024-01-16T08:48:27.138Z,99660.00
2024-01-16T08:51:02.794Z,99672.00
2024-01-16T08:53:36.800Z,99676.00
2024-01-16T08:56:13.880Z,99667.00
2024-01-16T08:58:47.855Z,99663.00
2024-01-16T09:01:22.190Z,99669.00
2024-01-16T09:03:56.416Z,99672.00
2024-01-16T09:06:32.597Z,99671.00
2024-01-16T09:09:06.938Z,99666.00
2024-01-16T09:11:41.983Z,99676.00
2024-01-16T09:14:18.296Z,99682.00
2024-01-16T09:16:55.209Z,99681.00
2024-01-16T09:19:30.652Z,99685.00
2024-01-16T09:22:07.308Z,99684.00
2024-01-16T09:24:44.721Z,99678.00
2024-01-16T09:27:21.032Z,99672.00
2024-01-16T09:29:56.423Z,99669.00
2024-01-16T09:32:32.016Z,99662.00
2024-01-16T09:35:09.102Z,99674.00
2024-01-16T09:37:44.786Z,99672.00
2024-01-16T09:40:18.482Z,99673.00
2024-01-16T09:42:52.965Z,99673.00
2024-01-16T09:45:29.069Z,99670.00
2024-01-16T09:48:05.410Z,99665.00
2024-01-16T09:50:39.666Z,99673.00
2024-01-16T09:53:15.233Z,99664.00
2024-01-16T09:55:52.822Z,99667.00
2024-01-16T09:58:27.446Z,99666.00
2024-01-16T10:01:01.688Z,99667.00
2024-01-16T10:03:37.832Z,99680.00
2024-01-16T10:06:12.804Z,99667.00
2024-01-16T10:08:52.532Z,99677.00
2024-01-16T10:11:26.414Z,99668.00
2024-01-16T10:14:03.665Z,99662.00
2024-01-16T10:17:00.709Z,99669.00
2024-01-16T10:19:43.271Z,99668.00
2024-01-16T10:22:26.956Z,99665.00
2024-01-16T10:25:18.138Z,99664.00
2024-01-16T10:28:09.658Z,99656.00
2024-01-16T10:30:45.679Z,99662.00
2024-01-16T10:33:22.515Z,99667.00
2024-01-16T10:36:12.622Z,99662.00
2024-01-16T10:38:48.183Z,99647.00
2024-01-16T10:41:26.594Z,99635.00
2024-01-16T10:44:09.620Z,99640.00
2024-01-16T10:46:43.399Z,99636.00
2024-01-16T10:49:17.649Z,99639.00
2024-01-16T10:51:54.383Z,99640.00
2024-01-16T10:54:28.202Z,99638.00
2024-01-16T10:57:04.426Z,99630.00
2024-01-16T10:59:48.257Z,99649.00
2024-01-16T11:02:30.943Z,99647.00
2024-01-16T11:05:07.341Z,99645.00
2024-01-16T11:07:44.449Z,99639.00
2024-01-16T11:10:23.598Z,99636.00
2024-01-16T11:13:04.355Z,99627.00
2024-01-16T11:15:41.049Z,99627.00
2024-01-16T11:18:19.258Z,99623.00
2024-01-16T11:21:04.570Z,99623.00
2024-01-16T11:23:42.228Z,99629.00
2024-01-16T11:26:30.342Z,99618.00
2024-01-16T11:29:41.203Z,99632.00
2024-01-16T11:32:39.551Z,99631.00
2024-01-16T11:35:13.909Z,99634.00
2024-01-16T11:37:49.872Z,99630.00
2024-01-16T11:40:25.228Z,99633.00
2024-01-16T11:42:59.529Z,99638.00
2024-01-16T11:45:52.904Z,99639.00
2024-01-16T11:48:31.895Z,99622.00
2024-01-16T11:51:28.469Z,99612.00
2024-01-16T11:54:02.490Z,99604.00
2024-01-16T11:57:28.521Z,99610.00
2024-01-16T12:00:14.260Z,99604.00
2024-01-16T12:02:59.572Z,99598.00
2024-01-16T12:05:35.022Z,99597.00
2024-01-16T12:08:08.702Z,99593.00
2024-01-16T12:10:50.018Z,99583.00
2024-01-16T12:13:24.008Z,99587.00
2024-01-16T12:16:06.494Z,99568.00
2024-01-16T12:18:46.051Z,99587.00
2024-01-16T12:21:21.361Z,99574.00
2024-01-16T12:24:08.141Z,99573.00
2024-01-16T12:26:44.974Z,99574.00
2024-01-16T12:29:20.646Z,99570.00
2024-01-16T12:32:09.520Z,99562.00
2024-01-16T12:34:58.386Z,99562.00
2024-01-16T12:37:32.381Z,99563.00
2024-01-16T12:40:08.229Z,99547.00
2024-01-16T12:42:45.080Z,99552.00
2024-01-16T12:45:21.519Z,99545.00
2024-01-16T12:48:02.722Z,99517.00
2024-01-16T12:50:38.309Z,99546.00
2024-01-16T12:53:14.562Z,99531.00
2024-01-16T12:55:48.616Z,99539.00
2024-01-16T12:58:25.535Z,99548.00
2024-01-16T13:00:59.861Z,99532.00
2024-01-16T13:03:33.922Z,99530.00
2024-01-16T13:06:09.569Z,99523.00
2024-01-16T13:08:43.524Z,99537.00
2024-01-16T13:11:32.987Z,99530.00
2024-01-16T13:14:13.098Z,99536.00
2024-01-16T13:16:47.567Z,99537.00
2024-01-16T13:19:22.256Z,99541.00
2024-01-16T13:22:05.642Z,99545.00
2024-01-16T13:24:42.112Z,99535.00
2024-01-16T13:27:18.032Z,99545.00
2024-01-16T13:29:51.899Z,99535.00
2024-01-16T13:32:28.271Z,99523.00
2024-01-16T13:35:02.032Z,99538.00
2024-01-16T13:37:39.495Z,99530.00
2024-01-16T13:40:20.168Z,99528.00
2024-01-16T13:42:54.816Z,99521.00
2024-01-16T13:45:29.644Z,99520.00
2024-01-16T13:48:05.771Z,99506.00
2024-01-16T13:50:39.830Z,99514.00
2024-01-16T13:53:15.482Z,99519.00
2024-01-16T13:55:49.789Z,99505.00
2024-01-16T13:58:24.082Z,99511.00
2024-01-16T14:00:58.710Z,99513.00
2024-01-16T14:03:32.272Z,99498.00
2024-01-16T14:06:08.288Z,99494.00
2024-01-16T14:08:43.843Z,99504.00
2024-01-16T14:11:18.340Z,99495.00
2024-01-16T14:13:54.708Z,99481.00
2024-01-16T14:16:47.846Z,99502.00
2024-01-16T14:19:28.006Z,99496.00
2024-01-16T14:22:02.067Z,99500.00
2024-01-16T14:24:39.469Z,99502.00
2024-01-16T14:27:13.443Z,99501.00
2024-01-16T14:29:47.144Z,99495.00
2024-01-16T14:32:22.229Z,99491.00
2024-01-16T14:34:56.131Z,99503.00
2024-01-16T14:37:29.429Z,99486.00
2024-01-16T14:40:13.841Z,99496.00
2024-01-16T14:42:49.398Z,99499.00
2024-01-16T14:45:24.372Z,99504.00
2024-01-16T14:47:59.519Z,99493.00
2024-01-16T14:50:33.897Z,99487.00
2024-01-16T14:53:08.041Z,99489.00
2024-01-16T14:55:43.713Z,99486.00
2024-01-16T14:58:19.967Z,99489.00
2024-01-16T15:00:55.263Z,99487.00
2024-01-16T15:03:29.216Z,99482.00
2024-01-16T15:06:03.153Z,99495.00
2024-01-16T15:08:37.072Z,99493.00
2024-01-16T15:11:12.960Z,99484.00
2024-01-16T15:13:50.040Z,99481.00
2024-01-16T15:16:24.009Z,99483.00
2024-01-16T15:18:58.295Z,99484.00
2024-01-16T15:21:33.299Z,99477.00
2024-01-16T15:24:07.143Z,99472.00
2024-01-16T15:26:42.843Z,99462.00
2024-01-16T15:29:16.470Z,99459.00
2024-01-16T15:31:50.587Z,99459.00
2024-01-16T15:34:24.889Z,99457.00
2024-01-16T15:36:59.831Z,99464.00
2024-01-16T15:39:33.559Z,99475.00
2024-01-16T15:42:09.501Z,99468.00
2024-01-16T15:44:43.562Z,99463.00
2024-01-16T15:47:17.283Z,99466.00
2024-01-16T15:49:51.120Z,99470.00
2024-01-16T15:52:25.358Z,99477.00
2024-01-16T15:54:59.399Z,99490.00
2024-01-16T15:57:34.958Z,99477.00
2024-01-16T16:00:11.227Z,99481.00
2024-01-16T16:02:48.440Z,99486.00
2024-01-16T16:05:23.340Z,99482.00
2024-01-16T16:07:57.474Z,99483.00
2024-01-16T16:10:31.550Z,99489.00
2024-01-16T16:13:07.264Z,99495.00
2024-01-16T16:15:43.724Z,99498.00
2024-01-16T16:18:17.688Z,99496.00
2024-01-16T16:20:51.172Z,99505.00
2024-01-16T16:23:25.230Z,99502.00
2024-01-16T16:26:00.488Z,99494.00
2024-01-16T16:28:35.320Z,99500.00
2024-01-16T16:31:08.906Z,99490.00
2024-01-16T16:33:43.074Z,99492.00
2024-01-16T16:36:16.935Z,99499.00
2024-01-16T16:38:51.285Z,99501.00
2024-01-16T16:41:25.085Z,99492.00
2024-01-16T16:44:01.892Z,99498.00
2024-01-16T16:46:36.062Z,99500.00
2024-01-16T16:49:12.246Z,99498.00
2024-01-16T16:51:48.582Z,99488.00
2024-01-16T16:54:22.191Z,99501.00
2024-01-16T16:56:56.011Z,99494.00
2024-01-16T16:59:33.712Z,99493.00
2024-01-16T17:02:11.391Z,99488.00
2024-01-16T17:04:46.468Z,99493.00
2024-01-16T17:07:20.174Z,99484.00
2024-01-16T17:09:56.605Z,99489.00
2024-01-16T17:12:31.327Z,99491.00
2024-01-16T17:15:08.266Z,99492.00
2024-01-16T17:17:43.614Z,99484.00
2024-01-16T17:20:42.155Z,99480.00
2024-01-16T17:23:16.069Z,99479.00
2024-01-16T17:25:51.596Z,99476.00
2024-01-16T17:28:26.399Z,99467.00
2024-01-16T17:31:06.393Z,99483.00
2024-01-16T17:33:40.269Z,99475.00
2024-01-16T17:36:16.758Z,99463.00
2024-01-16T17:38:57.476Z,99468.00
2024-01-16T17:41:32.265Z,99477.00
2024-01-16T17:44:06.751Z,99474.00
2024-01-16T17:46:46.453Z,99462.00
2024-01-16T17:49:21.295Z,99459.00
2024-01-16T17:51:55.840Z,99458.00
2024-01-16T17:54:30.865Z,99459.00
2024-01-16T17:57:05.083Z,99463.00
2024-01-16T17:59:42.917Z,99459.00
2024-01-16T18:02:18.151Z,99449.00
2024-01-16T18:04:52.754Z,99456.00
2024-01-16T18:07:26.671Z,99440.00
2024-01-16T18:10:00.508Z,99437.00
2024-01-16T18:12:35.286Z,99433.00
2024-01-16T18:15:12.937Z,99436.00
2024-01-16T18:17:51.333Z,99427.00
2024-01-16T18:20:27.315Z,99418.00
2024-01-16T18:23:03.414Z,99415.00
2024-01-16T18:25:39.288Z,99408.00
2024-01-16T18:28:13.383Z,99410.00
2024-01-16T18:30:53.336Z,99401.00
2024-01-16T18:33:32.405Z,99405.00
2024-01-16T18:36:06.751Z,99418.00
2024-01-16T18:38:42.071Z,99409.00
2024-01-16T18:41:16.722Z,99408.00
2024-01-16T18:43:52.882Z,99407.00
2024-01-16T18:46:27.337Z,99400.00
2024-01-16T18:49:04.215Z,99391.00
2024-01-16T18:51:38.238Z,99375.00
2024-01-16T18:54:12.435Z,99384.00
2024-01-16T18:56:46.675Z,99379.00
2024-01-16T18:59:22.388Z,99373.00
2024-01-16T19:01:58.624Z,99382.00
2024-01-16T19:04:34.803Z,99366.00
2024-01-16T19:07:14.154Z,99366.00
2024-01-16T19:09:47.654Z,99367.00
2024-01-16T19:12:21.488Z,99373.00
2024-01-16T19:14:55.976Z,99364.00
2024-01-16T19:17:31.276Z,99367.00
2024-01-16T19:20:11.110Z,99366.00
2024-01-16T19:22:46.496Z,99366.00
2024-01-16T19:25:21.260Z,99365.00
2024-01-16T19:27:56.524Z,99377.00
2024-01-16T19:30:33.941Z,99364.00
2024-01-16T19:33:09.836Z,99356.00
2024-01-16T19:35:45.959Z,99343.00
2024-01-16T19:38:20.939Z,99338.00
2024-01-16T19:40:54.860Z,99345.00
2024-01-16T19:43:28.894Z,99340.00
2024-01-16T19:46:03.940Z,99334.00
2024-01-16T19:48:40.811Z,99339.00
2024-01-16T19:51:16.116Z,99336.00
2024-01-16T19:53:49.968Z,99331.00
2024-01-16T19:56:23.681Z,99331.00
2024-01-16T19:58:59.153Z,99322.00
2024-01-16T20:01:33.741Z,99327.00
2024-01-16T20:04:07.797Z,99319.00
2024-01-16T20:06:45.982Z,99326.00
2024-01-16T20:09:20.306Z,99317.00
2024-01-16T20:11:55.727Z,99307.00
2024-01-16T20:14:30.114Z,99296.00
2024-01-16T20:17:04.654Z,99307.00
2024-01-16T20:19:38.550Z,99290.00
2024-01-16T20:22:14.258Z,99289.00
2024-01-16T20:24:48.604Z,99292.00
2024-01-16T20:27:21.978Z,99284.00
2024-01-16T20:29:57.837Z,99289.00
2024-01-16T20:32:31.672Z,99275.00
2024-01-16T20:35:06.359Z,99283.00
2024-01-16T20:37:41.628Z,99277.00
2024-01-16T20:40:15.499Z,99277.00
2024-01-16T20:42:49.819Z,99266.00
2024-01-16T20:45:23.526Z,99276.00
2024-01-16T20:47:58.809Z,99284.00
2024-01-16T20:50:32.600Z,99279.00
2024-01-16T20:53:08.361Z,99269.00
2024-01-16T20:55:42.377Z,99276.00
2024-01-16T20:58:16.501Z,99285.00
2024-01-16T21:00:53.674Z,99279.00
2024-01-16T21:03:28.810Z,99280.00
2024-01-16T21:06:02.915Z,99276.00
2024-01-16T21:08:38.778Z,99280.00
2024-01-16T21:11:13.517Z,99266.00
2024-01-16T21:13:47.468Z,99279.00
2024-01-16T21:16:21.599Z,99266.00
2024-01-16T21:18:57.746Z,99272.00
2024-01-16T21:21:35.355Z,99268.00
2024-01-16T21:24:11.424Z,99265.00
2024-01-16T21:26:48.634Z,99243.00
2024-01-16T21:29:26.150Z,99259.00
2024-01-16T21:32:00.385Z,99259.00
2024-01-16T21:34:35.385Z,99251.00
2024-01-16T21:37:09.102Z,99248.00
2024-01-16T21:39:44.293Z,99244.00
2024-01-16T21:42:17.957Z,99249.00
2024-01-16T21:44:53.273Z,99254.00
2024-01-16T21:47:28.977Z,99235.00
2024-01-16T21:50:06.946Z,99232.00
2024-01-16T21:52:41.864Z,99221.00
2024-01-16T21:55:20.113Z,99202.00
2024-01-16T21:57:54.244Z,99204.00
2024-01-16T22:00:28.314Z,99196.00
2024-01-16T22:03:02.087Z,99173.00
2024-01-16T22:05:37.026Z,99190.00
2024-01-16T22:08:11.393Z,99173.00
2024-01-16T22:10:47.736Z,99167.00
2024-01-16T22:13:23.403Z,99173.00
2024-01-16T22:15:57.180Z,99167.00
2024-01-16T22:18:30.959Z,99168.00
2024-01-16T22:21:06.210Z,99163.00
2024-01-16T22:23:40.857Z,99158.00
2024-01-16T22:26:16.262Z,99162.00
2024-01-16T22:28:52.241Z,99161.00
2024-01-16T22:31:27.306Z,99151.00
2024-01-16T22:34:03.653Z,99142.00
2024-01-16T22:36:41.979Z,99153.00
2024-01-16T22:39:18.693Z,99148.00
2024-01-16T22:41:54.449Z,99141.00
2024-01-16T22:44:30.345Z,99107.00
2024-01-16T22:47:04.747Z,99131.00
2024-01-16T22:49:39.875Z,99129.00
2024-01-16T22:52:16.376Z,99119.00
2024-01-16T22:54:50.160Z,99126.00
2024-01-16T22:57:26.132Z,99116.00
2024-01-16T23:00:00.618Z,99116.00
2024-01-16T23:02:34.924Z,99108.00
2024-01-16T23:05:10.283Z,99103.00
2024-01-16T23:07:45.580Z,99109.00
2024-01-16T23:10:21.075Z,99100.00
2024-01-16T23:12:56.392Z,99098.00
2024-01-16T23:15:30.457Z,99093.00
2024-01-16T23:18:07.222Z,99096.00
2024-01-16T23:20:41.305Z,99089.00
2024-01-16T23:23:19.126Z,99087.00
2024-01-16T23:25:53.603Z,99090.00
2024-01-16T23:28:28.970Z,99076.00
2024-01-16T23:31:02.695Z,99073.00
2024-01-16T23:33:37.151Z,99083.00
2024-01-16T23:36:11.863Z,99061.00
2024-01-16T23:38:45.750Z,99059.00
2024-01-16T23:41:19.581Z,99054.00
2024-01-16T23:43:54.773Z,99048.00
2024-01-16T23:46:28.338Z,99041.00
2024-01-16T23:49:02.567Z,99044.00
2024-01-16T23:51:36.914Z,99044.00
2024-01-16T23:54:10.406Z,99029.00
2024-01-16T23:56:44.059Z,99037.00
2024-01-16T23:59:19.198Z,99033.00
